»·PEaware :: DAL9110 KPSP-KSAN

DAL9110 :: KPSP-KSAN

FLIGHT INFORMATION

Flight Status: Arrived
Operator:
Delta Air Lines
More flights by this operator :: More flights under this callsign
Pilot: Brendan R. (7498)
Aircraft: MCDONNELL-DOUGLAS MD-88
(MD88)
More flights by this aircraft type
Origin: KPSP Palm Springs Intl
United States
Destination: KSAN San Diego Intl-Lindbergh
United States
More flights between these airports :: More routes between these airports
Route: +CATH1 TRM SALTN BARET5
File this flight plan on PilotEdge
Remarks:
Altitude:
(Current/Filed)
16,000ft
Speed:
(Current/Filed)
370kts
Departed: 03-Dec-17 09:58 AM
Arrived: 03-Dec-17 10:26 AM
Distance/Time
Traveled:
74nm/0:28
Distance/Time
To Go:
Arrived

Flight Plot

Page will automatically refresh every two minutes.

Flight plan parsing failed; only flown route is shown


Map Options




Map Legend


Flown Route
Filed Route
Departure Airport
Arrival Airport
Navaid (VOR, NDB)
Fix

Horizontal Profiles

Position Reports

Time Latitude Longitude Heading Altitude Ground
Speed
03-Dec-17 09:40 33.823122 -116.505783 285 486ft 0kts
03-Dec-17 09:41 33.823122 -116.505783 285 486ft 0kts
03-Dec-17 09:42 33.823122 -116.505783 285 486ft 0kts
03-Dec-17 09:43 33.823122 -116.505783 285 486ft 0kts
03-Dec-17 09:44 33.823122 -116.505783 285 486ft 0kts
03-Dec-17 09:45 33.823122 -116.505783 285 486ft 0kts
03-Dec-17 09:46 33.823122 -116.505783 285 486ft 0kts
03-Dec-17 09:47 33.823122 -116.505783 285 486ft 0kts
03-Dec-17 09:48 33.823122 -116.505783 285 486ft 0kts
03-Dec-17 09:49 33.823122 -116.505783 285 486ft 0kts
03-Dec-17 09:50 33.823122 -116.505783 285 486ft 0kts
03-Dec-17 09:51 33.823069 -116.505550 285 486ft 2kts
03-Dec-17 09:52 33.823019 -116.504598 251 486ft 2kts
03-Dec-17 09:53 33.823475 -116.505023 153 486ft 0kts
03-Dec-17 09:54 33.823474 -116.505023 153 486ft 0kts
03-Dec-17 09:55 33.823472 -116.505021 153 486ft 0kts
03-Dec-17 09:56 33.823469 -116.505020 153 486ft 0kts
03-Dec-17 09:57 33.823313 -116.504869 131 486ft 0kts
03-Dec-17 09:58 33.823256 -116.504699 104 486ft 0kts
03-Dec-17 09:59 33.821098 -116.502121 140 486ft 17kts
03-Dec-17 10:00 33.819135 -116.500343 144 486ft 13kts
03-Dec-17 10:01 33.818427 -116.499248 86 486ft 0kts
03-Dec-17 10:02 33.819352 -116.498556 328 486ft 5kts
03-Dec-17 10:03 33.840632 -116.517573 321 908ft 161kts
03-Dec-17 10:04 33.880366 -116.556270 319 2741ft 235kts
03-Dec-17 10:05 33.934331 -116.573259 24 4835ft 272kts
03-Dec-17 10:06 33.948805 -116.491011 123 7890ft 289kts
03-Dec-17 10:07 33.871394 -116.429277 158 11348ft 297kts
03-Dec-17 10:08 33.809431 -116.358978 136 12984ft 310kts
03-Dec-17 10:09 33.756490 -116.298930 141 13938ft 313kts
03-Dec-17 10:10 33.689907 -116.227259 142 15898ft 328kts
03-Dec-17 10:11 33.616397 -116.170949 178 15977ft 308kts
03-Dec-17 10:12 33.531367 -116.168168 187 15970ft 303kts
03-Dec-17 10:13 33.433199 -116.174208 188 15977ft 306kts
03-Dec-17 10:14 33.356907 -116.191563 214 15980ft 348kts
03-Dec-17 10:15 33.286993 -116.269866 228 15909ft 345kts
03-Dec-17 10:16 33.217787 -116.349377 224 15915ft 346kts
03-Dec-17 10:17 33.145350 -116.425221 223 14841ft 342kts
03-Dec-17 10:18 33.072124 -116.496566 214 12013ft 338kts
03-Dec-17 10:19 32.994170 -116.550141 211 10610ft 299kts
03-Dec-17 10:20 32.924790 -116.595684 211 9181ft 276kts
03-Dec-17 10:21 32.857899 -116.639778 211 8982ft 276kts
03-Dec-17 10:22 32.789211 -116.685258 211 8392ft 296kts
03-Dec-17 10:23 32.717103 -116.733573 211 7122ft 275kts
03-Dec-17 10:24 32.652516 -116.776816 211 5101ft 262kts
03-Dec-17 10:25 32.630642 -116.851351 278 5017ft 264kts
03-Dec-17 10:26 32.656187 -116.932154 291 4988ft 259kts
03-Dec-17 10:27 32.681030 -117.004441 291 4746ft 212kts
03-Dec-17 10:28 32.700646 -117.062252 291 3222ft 176kts
03-Dec-17 10:29 32.715421 -117.114318 284 1745ft 158kts
03-Dec-17 10:30 32.726803 -117.161410 285 490ft 137kts
03-Dec-17 10:31 32.735136 -117.196165 285 25ft 26kts
03-Dec-17 10:32 32.734953 -117.198668 251 24ft 0kts
03-Dec-17 10:33 32.735161 -117.200655 283 24ft 6kts
03-Dec-17 10:34 32.734314 -117.202610 226 24ft 4kts

Navigation Log

Ident Type
Flight plan parsing failed, navigation log unavailable